Welcome to Northern Hawkes Bay. New Zealand.
PWS Header
      nz Flag



Hit Counter


W3C Valid W3C Valid logo


    Wairoa

Select any of the Stations below to visit their websites.










Historic Data from Weather Underground
Select the location of interest below. Wairoa is the default. Please have patience, this Data is slow to load in.
Northern Hawkes Bay Historical Data
Daily Summary for April 16, 2017 Units:  English    Metric   Both
« Previous Day
Next Day »
Daily Weekly Monthly Yearly Custom
  High: Low: Average:
Temperature: 80.8 °F 49.5 °F 61.3 °F
Dew Point: 57.7 °F 49.3 °F 53.4 °F
Humidity: 99% 36% 79%
Wind Speed: 7.6mph 0mph 1.6mph
Wind Gust: 13.6mph - -
Wind- - SSW
Pressure: 29.9 in 29.8 in -
Precipitation: 0.09 in    
Historical Graphs
 
 
Tabular Data for April 16, 2017
Time Temperature Dew Point Pressure Wind Wind Speed Wind Gust Humidity Rainfall Rate (Hourly) solar
00:02 57.4 °F 52.9 °F 29.8 in Calm   3.8 mph 85% 0 in 0 W/m2
00:08 57.4 °F 52.9 °F 29.8 in Calm   3.8 mph 85% 0 in 0 W/m2
00:13 57 °F 52.9 °F 29.8 in Calm     86% 0 in 0 W/m2
00:18 56.8 °F 52.7 °F 29.8 in Calm     86% 0 in 0 W/m2
00:23 56.7 °F 52.9 °F 29.8 in Calm     87% 0 in 0 W/m2
00:28 56.3 °F 52.5 °F 29.8 in Calm     87% 0 in 0 W/m2
00:33 55.8 °F 52 °F 29.8 in Calm     87% 0 in 0 W/m2
00:38 55.6 °F 51.8 °F 29.8 in Calm     87% 0 in 0 W/m2
00:43 55.6 °F 52.2 °F 29.8 in Calm     88% 0 in 0 W/m2
00:48 55.6 °F 52.3 °F 29.8 in Calm     89% 0 in 0 W/m2
00:53 54.9 °F 51.6 °F 29.8 in Calm     89% 0 in 0 W/m2
00:58 54.5 °F 51.6 °F 29.8 in Calm     90% 0 in 0 W/m2
01:03 54.1 °F 51.6 °F 29.8 in Calm     91% 0 in 0 W/m2
01:08 54 °F 51.6 °F 29.8 in Calm     92% 0 in 0 W/m2
01:13 54 °F 51.6 °F 29.8 in Calm   4.5 mph 92% 0 in 0 W/m2
01:18 53.8 °F 51.8 °F 29.8 in NNW 2.2 mph 4.5 mph 93% 0 in 0 W/m2
01:23 53.6 °F 51.6 °F 29.8 in Calm   4.5 mph 93% 0 in 0 W/m2
01:28 53.4 °F 52 °F 29.8 in Calm   4.5 mph 95% 0 in 0 W/m2
01:33 53.2 °F 52 °F 29.8 in Calm     95% 0 in 0 W/m2
01:38 53.2 °F 52 °F 29.8 in Calm     95% 0 in 0 W/m2
01:43 53.1 °F 52 °F 29.8 in Calm     96% 0 in 0 W/m2
01:48 52.9 °F 51.8 °F 29.8 in Calm     96% 0 in 0 W/m2
01:53 52.7 °F 51.6 °F 29.8 in Calm     96% 0 in 0 W/m2
01:58 52.3 °F 51.3 °F 29.8 in Calm     96% 0 in 0 W/m2
02:03 52.2 °F 51.1 °F 29.8 in Calm     96% 0 in 0 W/m2
02:08 52.2 °F 51.3 °F 29.8 in Calm     97% 0 in 0 W/m2
02:13 52.2 °F 51.3 °F 29.8 in Calm     97% 0 in 0 W/m2
02:18 51.8 °F 51.1 °F 29.8 in Calm     97% 0 in 0 W/m2
02:23 52 °F 51.3 °F 29.8 in Calm     97% 0 in 0 W/m2
02:28 52.3 °F 51.4 °F 29.8 in Calm     97% 0 in 0 W/m2
02:33 52.5 °F 51.6 °F 29.8 in Calm     97% 0 in 0 W/m2
02:38 52.5 °F 52 °F 29.8 in Calm     98% 0 in 0 W/m2
02:43 52.2 °F 51.6 °F 29.8 in Calm     98% 0 in 0 W/m2
02:48 51.8 °F 51.3 °F 29.8 in Calm     98% 0 in 0 W/m2
02:53 51.8 °F 51.1 °F 29.8 in Calm     97% 0 in 0 W/m2
02:58 51.4 °F 50.9 °F 29.8 in Calm     98% 0 in 0 W/m2
03:04 51.3 °F 50.7 °F 29.8 in Calm     98% 0 in 0 W/m2
03:09 51.3 °F 50.7 °F 29.8 in Calm     98% 0 in 0 W/m2
03:14 51.3 °F 50.7 °F 29.8 in Calm     98% 0 in 0 W/m2
03:19 51.3 °F 50.7 °F 29.8 in Calm     98% 0 in 0 W/m2
03:24 51.1 °F 50.5 °F 29.8 in Calm     98% 0 in 0 W/m2
03:29 51.3 °F 51.1 °F 29.8 in Calm     99% 0 in 0 W/m2
03:34 51.3 °F 51.1 °F 29.8 in Calm     99% 0 in 0 W/m2
03:39 50.9 °F 50.5 °F 29.8 in Calm     99% 0 in 0 W/m2
03:44 50.7 °F 50.5 °F 29.8 in Calm     99% 0 in 0 W/m2
03:49 50.5 °F 50 °F 29.8 in Calm     98% 0 in 0 W/m2
03:54 50.5 °F 50.4 °F 29.8 in Calm     99% 0 in 0 W/m2
03:59 50.7 °F 50.5 °F 29.8 in Calm     99% 0 in 0 W/m2
04:04 50.9 °F 50.5 °F 29.8 in Calm     99% 0 in 0 W/m2
04:09 50.7 °F 50.5 °F 29.8 in Calm     99% 0 in 0 W/m2
04:14 50.5 °F 50.4 °F 29.8 in North 2.2 mph 3.1 mph 99% 0 in 0 W/m2
04:19 50.5 °F 50.4 °F 29.8 in Calm   3.1 mph 99% 0 in 0 W/m2
04:24 50.4 °F 50.2 °F 29.8 in Calm   3.1 mph 99% 0 in 0 W/m2
04:29 50.4 °F 50.2 °F 29.8 in Calm     99% 0 in 0 W/m2
04:34 50.4 °F 50.2 °F 29.8 in Calm     99% 0 in 0 W/m2
04:39 50.5 °F 50.4 °F 29.8 in Calm     99% 0 in 0 W/m2
04:44 50.5 °F 50.4 °F 29.8 in Calm     99% 0 in 0 W/m2
04:49 50.5 °F 50.4 °F 29.8 in Calm     99% 0 in 0 W/m2
04:54 50.5 °F 50.4 °F 29.8 in Calm     99% 0 in 0 W/m2
04:59 50.5 °F 50.4 °F 29.8 in Calm     99% 0 in 0 W/m2
05:04 50.4 °F 50.2 °F 29.8 in Calm     99% 0 in 0 W/m2
05:09 50.4 °F 50.2 °F 29.8 in Calm     99% 0 in 0 W/m2
05:14 50.4 °F 50.2 °F 29.8 in Calm     99% 0 in 0 W/m2
05:19 50.4 °F 50.2 °F 29.8 in Calm     99% 0 in 0 W/m2
05:24 50.2 °F 49.8 °F 29.8 in Calm     99% 0 in 0 W/m2
05:29 50 °F 49.6 °F 29.8 in Calm     99% 0 in 0 W/m2
05:34 49.6 °F 49.5 °F 29.8 in Calm     99% 0 in 0 W/m2
05:39 49.5 °F 49.3 °F 29.8 in Calm     99% 0 in 0 W/m2
05:44 49.6 °F 49.5 °F 29.8 in Calm     99% 0 in 0 W/m2
05:49 49.6 °F 49.5 °F 29.8 in Calm     99% 0 in 0 W/m2
05:54 49.6 °F 49.5 °F 29.8 in Calm     99% 0 in 0 W/m2
05:59 49.6 °F 49.5 °F 29.8 in Calm     99% 0 in 0 W/m2
06:04 49.6 °F 49.5 °F 29.8 in Calm     99% 0 in 0 W/m2
06:09 49.8 °F 49.6 °F 29.8 in Calm     99% 0 in 0 W/m2
06:14 49.8 °F 49.6 °F 29.8 in Calm     99% 0 in 0 W/m2
06:19 49.8 °F 49.6 °F 29.8 in Calm     99% 0 in 0 W/m2
06:24 49.6 °F 49.5 °F 29.8 in Calm     99% 0 in 0 W/m2
06:29 49.6 °F 49.5 °F 29.8 in Calm     99% 0 in 0 W/m2
06:34 49.6 °F 49.5 °F 29.8 in Calm     99% 0 in 0 W/m2
06:39 49.6 °F 49.5 °F 29.8 in Calm     99% 0 in 0 W/m2
06:44 50 °F 49.6 °F 29.8 in Calm     99% 0 in 8 W/m2
06:49 49.8 °F 49.6 °F 29.8 in Calm     99% 0 in 12 W/m2
06:54 50 °F 49.6 °F 29.8 in Calm     99% 0 in 15 W/m2
06:59 50.2 °F 49.8 °F 29.8 in Calm     99% 0 in 19 W/m2
07:04 50.4 °F 50.2 °F 29.8 in Calm     99% 0 in 39 W/m2
07:09 50.9 °F 50.5 °F 29.8 in Calm     99% 0 in 81 W/m2
07:14 51.8 °F 51.3 °F 29.8 in Calm     98% 0 in 101 W/m2
07:19 52.7 °F 52.2 °F 29.8 in Calm     98% 0 in 119 W/m2
07:24 54 °F 53.1 °F 29.8 in Calm     97% 0 in 135 W/m2
07:29 55.8 °F 55.6 °F 29.8 in Calm     99% 0 in 151 W/m2
07:34 56.5 °F 56.1 °F 29.9 in Calm     99% 0 in 173 W/m2
07:39 56.8 °F 56.3 °F 29.9 in Calm     98% 0 in 199 W/m2
07:44 57.4 °F 55.4 °F 29.9 in Calm     93% 0 in 213 W/m2
07:49 59.2 °F 55.9 °F 29.9 in Calm     89% 0 in 241 W/m2
07:54 60.6 °F 55 °F 29.9 in Calm     82% 0 in 236 W/m2
07:59 60.4 °F 53.2 °F 29.9 in Calm     77% 0 in 231 W/m2
08:04 61 °F 53.4 °F 29.9 in Calm     76% 0 in 212 W/m2
08:09 60.6 °F 53.4 °F 29.9 in Calm     77% 0 in 218 W/m2
08:14 60.6 °F 53.8 °F 29.9 in Calm   2.2 mph 78% 0 in 218 W/m2
08:19 61 °F 54.3 °F 29.9 in Calm   2.2 mph 79% 0 in 252 W/m2
08:39 63 °F 54.9 °F 29.9 in Calm     75% 0 in 181 W/m2
08:44 63.5 °F 55.6 °F 29.9 in Calm     75% 0 in 188 W/m2
08:49 64 °F 55.6 °F 29.9 in Calm     74% 0 in 194 W/m2
08:54 63.1 °F 54.3 °F 29.9 in Calm   3.1 mph 73% 0 in 158 W/m2
08:59 63.1 °F 54.7 °F 29.9 in Calm   3.1 mph 74% 0 in 328 W/m2
09:04 65.5 °F 57.7 °F 29.9 in Calm     76% 0 in 344 W/m2
09:09 68.2 °F 56.8 °F 29.9 in Calm     67% 0 in 376 W/m2
09:14 69.1 °F 56.5 °F 29.9 in Calm     64% 0 in 389 W/m2
09:19 70 °F 56.5 °F 29.9 in Calm     62% 0 in 406 W/m2
09:24 70.9 °F 56.8 °F 29.9 in Calm     61% 0 in 410 W/m2
09:29 70.9 °F 55.9 °F 29.9 in Calm     59% 0 in 391 W/m2
09:34 72.1 °F 56.1 °F 29.9 in Calm     57% 0 in 158 W/m2
09:39 72.3 °F 54.3 °F 29.9 in North 3.8 mph 6.9 mph 53% 0 in 99 W/m2
09:44 70.7 °F 52.9 °F 29.9 in North 0.7 mph 6.9 mph 53% 0 in 96 W/m2
09:49 69.8 °F 53.4 °F 29.9 in North 3.8 mph 7.6 mph 56% 0 in 106 W/m2
09:54 69.8 °F 52.9 °F 29.9 in North 3.8 mph 7.6 mph 55% 0 in 110 W/m2
09:59 69.6 °F 53.2 °F 29.9 in North 3.1 mph 6.9 mph 56% 0 in 92 W/m2
10:04 70.9 °F 54 °F 29.9 in North 3.1 mph 6.9 mph 55% 0 in 108 W/m2
10:09 71.6 °F 53.6 °F 29.9 in NNE 3.1 mph 6 mph 53% 0 in 117 W/m2
10:14 71.8 °F 53.2 °F 29.9 in NE 1.6 mph 6 mph 52% 0 in 136 W/m2
10:19 71.4 °F 53.4 °F 29.9 in NNE 3.8 mph 6 mph 53% 0 in 105 W/m2
10:24 72 °F 52.9 °F 29.9 in Calm   6 mph 51% 0 in 138 W/m2
10:29 72.7 °F 53.4 °F 29.9 in North 2.2 mph 6 mph 51% 0 in 160 W/m2
10:34 72.1 °F 53.1 °F 29.9 in North 1.6 mph 7.6 mph 51% 0 in 322 W/m2
10:39 72.1 °F 53.1 °F 29.9 in North 3.1 mph 7.6 mph 51% 0 in 490 W/m2
10:44 72.7 °F 53.4 °F 29.9 in North 2.2 mph 7.6 mph 51% 0 in 221 W/m2
10:49 71.4 °F 52.9 °F 29.9 in NNE 4.5 mph 8.3 mph 52% 0 in 342 W/m2
10:54 70.2 °F 52.3 °F 29.9 in NE 6 mph 9.2 mph 53% 0 in 335 W/m2
10:59 70.2 °F 53.2 °F 29.9 in ENE 2.2 mph 9.2 mph 55% 0 in 509 W/m2
11:04 71.6 °F 53.6 °F 29.9 in ENE 3.8 mph 9.2 mph 53% 0 in 523 W/m2
11:09 71.6 °F 52.5 °F 29.9 in NE 4.5 mph 8.3 mph 51% 0 in 564 W/m2
11:14 71.4 °F 53.4 °F 29.9 in NNE 5.4 mph 11.4 mph 53% 0 in 381 W/m2
11:19 71.4 °F 53.4 °F 29.9 in Calm   11.4 mph 53% 0 in 522 W/m2
11:24 73 °F 54.3 °F 29.9 in NNE 6.9 mph 10.7 mph 52% 0 in 542 W/m2
11:29 72.1 °F 53.1 °F 29.9 in NNE 6 mph 10.7 mph 51% 0 in 535 W/m2
11:34 72.3 °F 53.8 °F 29.9 in NNE 3.8 mph 10.7 mph 52% 0 in 516 W/m2
11:39 72.1 °F 53.1 °F 29.9 in NNE 0.7 mph 10.7 mph 51% 0 in 508 W/m2
11:44 72.7 °F 53.4 °F 29.9 in North 3.8 mph 9.2 mph 51% 0 in 504 W/m2
11:49 73 °F 54 °F 29.9 in NNE 3.1 mph 9.2 mph 51% 0 in 509 W/m2
11:54 72.5 °F 53.4 °F 29.9 in North 1.6 mph 7.6 mph 51% 0 in 528 W/m2
11:59 72.5 °F 53.4 °F 29.9 in North 4.5 mph 9.2 mph 51% 0 in 549 W/m2
12:04 72.9 °F 53.2 °F 29.9 in NNE 4.5 mph 9.2 mph 50% 0 in 534 W/m2
12:09 73.6 °F 53.2 °F 29.9 in NNE 3.1 mph 7.6 mph 49% 0 in 538 W/m2
12:14 73.4 °F 52.5 °F 29.9 in NNE 2.2 mph 9.2 mph 48% 0 in 295 W/m2
12:19 73.6 °F 52.7 °F 29.9 in NNE 1.6 mph 9.2 mph 48% 0 in 550 W/m2
12:24 74.1 °F 52.5 °F 29.9 in NNE 3.1 mph 8.3 mph 47% 0 in 467 W/m2
12:29 74.5 °F 54.1 °F 29.9 in NE 3.1 mph 6.9 mph 49% 0 in 517 W/m2
12:34 75.2 °F 53.1 °F 29.8 in NE 4.5 mph 7.6 mph 46% 0 in 508 W/m2
12:39 74.8 °F 53.2 °F 29.8 in NNE 4.5 mph 7.6 mph 47% 0 in 527 W/m2
12:44 74.5 °F 53.1 °F 29.8 in North 2.2 mph 9.8 mph 47% 0 in 508 W/m2
12:49 75.9 °F 53.8 °F 29.8 in North 3.1 mph 9.8 mph 46% 0 in 486 W/m2
12:54 74.8 °F 52.7 °F 29.8 in North 7.6 mph 13.6 mph 46% 0 in 514 W/m2
12:59 73.8 °F 52.3 °F 29.8 in North 5.4 mph 13.6 mph 47% 0 in 199 W/m2
13:04 72.9 °F 49.6 °F 29.8 in North 4.5 mph 13.6 mph 44% 0 in 286 W/m2
13:09 73.4 °F 52 °F 29.8 in North 6 mph 10.7 mph 47% 0 in 516 W/m2
13:14 74.1 °F 52 °F 29.8 in NNW 3.8 mph 10.7 mph 46% 0 in 204 W/m2
13:19 75.6 °F 52.9 °F 29.8 in NNW 2.2 mph 9.8 mph 45% 0 in 177 W/m2
13:24 75.7 °F 52.3 °F 29.8 in NNW 6 mph 10.7 mph 44% 0 in 330 W/m2
13:29 75 °F 52.9 °F 29.8 in North 1.6 mph 10.7 mph 46% 0 in 287 W/m2
13:34 75 °F 52.3 °F 29.8 in North 7.6 mph 10.7 mph 45% 0 in 420 W/m2
13:39 74.8 °F 52.7 °F 29.8 in NNW 5.4 mph 10.7 mph 46% 0 in 200 W/m2
13:44 75 °F 52.3 °F 29.8 in North 4.5 mph 10.7 mph 45% 0 in 420 W/m2
13:49 75.2 °F 52.3 °F 29.8 in North 5.4 mph 10.7 mph 45% 0 in 364 W/m2
13:54 75.4 °F 52.5 °F 29.8 in NNW 5.4 mph 9.8 mph 45% 0 in 392 W/m2
13:59 75.4 °F 52.5 °F 29.8 in NW 2.2 mph 8.3 mph 45% 0 in 338 W/m2
14:04 75.7 °F 52.3 °F 29.8 in NW 3.8 mph 8.3 mph 44% 0 in 376 W/m2
14:09 75.6 °F 52.2 °F 29.8 in NW 3.8 mph 7.6 mph 44% 0 in 103 W/m2
14:14 74.1 °F 52 °F 29.8 in NNW 1.6 mph 7.6 mph 46% 0 in 123 W/m2
14:19 73 °F 51.1 °F 29.8 in North 2.2 mph 7.6 mph 46% 0 in 149 W/m2
14:24 74.8 °F 53.2 °F 29.8 in Calm   7.6 mph 47% 0 in 156 W/m2
14:29 78.4 °F 54.1 °F 29.8 in Calm   3.1 mph 43% 0 in 165 W/m2
14:34 80.8 °F 52.9 °F 29.8 in NW 0.7 mph 3.8 mph 38% 0 in 128 W/m2
14:39 80.1 °F 52.2 °F 29.8 in NNW 1.6 mph 4.5 mph 38% 0 in 95 W/m2
14:44 80.6 °F 51.3 °F 29.8 in North 2.2 mph 4.5 mph 36% 0 in 114 W/m2
14:49 77.5 °F 51.3 °F 29.8 in Calm   6 mph 40% 0 in 121 W/m2
14:54 75.7 °F 52.3 °F 29.8 in North 0.7 mph 6 mph 44% 0 in 151 W/m2
14:59 77.9 °F 54.3 °F 29.8 in NNE 1.6 mph 5.4 mph 44% 0 in 209 W/m2
15:04 77.9 °F 52.3 °F 29.8 in NE 1.6 mph 6.9 mph 41% 0 in 148 W/m2
15:09 75 °F 52.3 °F 29.8 in NE 2.2 mph 8.3 mph 45% 0 in 103 W/m2
15:14 73.2 °F 51.8 °F 29.8 in NNE 2.2 mph 8.3 mph 47% 0 in 117 W/m2
15:19 72.7 °F 52.3 °F 29.8 in North 3.1 mph 4.5 mph 49% 0 in 109 W/m2
15:24 72.1 °F 52.5 °F 29.8 in North 1.6 mph 5.4 mph 50% 0 in 91 W/m2
15:29 71.6 °F 52.5 °F 29.8 in North 3.1 mph 5.4 mph 51% 0 in 85 W/m2
15:34 71.2 °F 53.2 °F 29.8 in NNE 3.8 mph 6 mph 53% 0 in 94 W/m2
15:39 71.2 °F 54.3 °F 29.8 in NNE 1.6 mph 6 mph 55% 0 in 117 W/m2
15:44 71.1 °F 54.7 °F 29.8 in NE 0.7 mph 5.4 mph 56% 0 in 86 W/m2
15:49 70.7 °F 54.7 °F 29.8 in NNE 3.1 mph 5.4 mph 57% 0 in 58 W/m2
15:54 70.2 °F 54.7 °F 29.8 in North 3.1 mph 6 mph 58% 0 in 65 W/m2
15:59 69.8 °F 55.8 °F 29.8 in Calm   7.6 mph 61% 0 in 64 W/m2
16:05 69.3 °F 56.1 °F 29.8 in North 3.1 mph 7.6 mph 63% 0 in 92 W/m2
16:10 70.9 °F 57.2 °F 29.8 in North 1.6 mph 6.9 mph 62% 0 in 149 W/m2
16:15 72.3 °F 57.2 °F 29.8 in North 5.4 mph 6.9 mph 59% 0 in 171 W/m2
16:20 72.3 °F 56.7 °F 29.8 in North 4.5 mph 8.3 mph 58% 0 in 161 W/m2
16:25 71.2 °F 55.8 °F 29.8 in NNW 6 mph 9.8 mph 58% 0 in 96 W/m2
16:30 69.3 °F 56.1 °F 29.8 in North 3.8 mph 9.8 mph 63% 0 in 50 W/m2
16:36 68 °F 55.8 °F 29.8 in NNE 5.4 mph 11.4 mph 65% 0 in 30 W/m2
16:41 67.3 °F 55.9 °F 29.8 in North 3.8 mph 11.4 mph 67% 0 in 25 W/m2
16:46 66.6 °F 55.2 °F 29.8 in NNW 2.2 mph 6.9 mph 67% 0 in 20 W/m2
16:51 66.2 °F 55.8 °F 29.8 in NNW 4.5 mph 6.9 mph 69% 0 in 16 W/m2
16:56 65.7 °F 55.9 °F 29.8 in NNW 3.1 mph 6 mph 71% 0 in 14 W/m2
17:01 65.3 °F 56.1 °F 29.8 in NNW 1.6 mph 6 mph 72% 0 in 13 W/m2
17:06 64.9 °F 56.1 °F 29.8 in NNW 3.8 mph 6 mph 73% 0 in 12 W/m2
17:11 64.8 °F 55.9 °F 29.8 in NNW 3.1 mph 6 mph 73% 0 in 10 W/m2
17:15 64.4 °F 55.9 °F 29.8 in NNW 2.2 mph 6 mph 74% 0 in 8 W/m2
17:20 64.2 °F 55.8 °F 29.8 in Calm   5.4 mph 74% 0 in 6 W/m2
17:25 64 °F 55.6 °F 29.8 in Calm   3.8 mph 74% 0 in 5 W/m2
17:30 63.7 °F 55.6 °F 29.8 in WNW 3.1 mph 3.8 mph 75% 0 in 4 W/m2
17:36 63.5 °F 55.6 °F 29.9 in Calm   5.4 mph 75% 0 in 2 W/m2
17:41 63.3 °F 55.2 °F 29.9 in WNW 1.6 mph 6 mph 75% 0 in 1 W/m2
17:46 63 °F 54.1 °F 29.9 in West 2.2 mph 8.3 mph 73% 0 in 0 W/m2
17:51 63 °F 52.3 °F 29.9 in WNW 4.5 mph 10.7 mph 68% 0 in 0 W/m2
17:56 63 °F 51.1 °F 29.9 in WNW 2.2 mph 10.7 mph 65% 0 in 0 W/m2
18:01 63 °F 50.5 °F 29.9 in WNW 3.1 mph 10.7 mph 64% 0 in 0 W/m2
18:06 62.6 °F 50.7 °F 29.9 in WNW 4.5 mph 9.2 mph 65% 0 in 0 W/m2
18:11 62.2 °F 52 °F 29.9 in WNW 5.4 mph 12.1 mph 69% 0 in 0 W/m2
18:16 61.7 °F 52.5 °F 29.9 in NW 3.1 mph 12.1 mph 72% 0 in 0 W/m2
18:21 61.3 °F 52.5 °F 29.9 in NNW 3.8 mph 9.2 mph 73% 0 in 0 W/m2
18:26 60.8 °F 53.2 °F 29.9 in North 2.2 mph 8.3 mph 76% 0.01 in 0 W/m2
18:31 60.1 °F 53.6 °F 29.9 in Calm   8.3 mph 79% 0.01 in 0 W/m2
18:36 59.7 °F 54.7 °F 29.9 in NE 0.7 mph 4.5 mph 83% 0.01 in 0 W/m2
18:41 59.5 °F 54.7 °F 29.9 in Calm   5.4 mph 84% 0.01 in 0 W/m2
18:46 59.4 °F 54.5 °F 29.9 in Calm   5.4 mph 84% 0.01 in 0 W/m2
18:51 59.2 °F 54.7 °F 29.9 in NNW 2.2 mph 7.6 mph 85% 0.01 in 0 W/m2
18:56 59 °F 54.5 °F 29.9 in NNW 1.6 mph 7.6 mph 85% 0.01 in 0 W/m2
19:01 59 °F 54.9 °F 29.9 in NNW 0.7 mph 6 mph 86% 0.01 in 0 W/m2
19:06 58.8 °F 55 °F 29.9 in NNW 2.2 mph 5.4 mph 87% 0.01 in 0 W/m2
19:11 58.6 °F 54.9 °F 29.9 in North 3.8 mph 5.4 mph 87% 0.01 in 0 W/m2
19:16 58.6 °F 54.9 °F 29.9 in Calm   5.4 mph 87% 0.01 in 0 W/m2
19:21 58.6 °F 55 °F 29.9 in Calm   5.4 mph 88% 0.01 in 0 W/m2
19:26 58.6 °F 55 °F 29.9 in Calm   3.8 mph 88% 0 in 0 W/m2
19:31 58.5 °F 54.7 °F 29.9 in Calm     87% 0 in 0 W/m2
19:36 58.5 °F 54.9 °F 29.9 in Calm     88% 0 in 0 W/m2
19:41 58.5 °F 54.9 °F 29.9 in Calm   2.2 mph 88% 0 in 0 W/m2
19:46 58.3 °F 55 °F 29.9 in North 0.7 mph 2.2 mph 89% 0.01 in 0 W/m2
19:51 58.3 °F 55.4 °F 29.9 in NW 3.1 mph 4.5 mph 90% 0.01 in 0 W/m2
19:56 58.1 °F 55.6 °F 29.9 in WNW 3.1 mph 4.5 mph 91% 0.01 in 0 W/m2
20:01 57.7 °F 55.4 °F 29.9 in NW 4.5 mph 6.9 mph 92% 0.01 in 0 W/m2
20:06 57.6 °F 55.9 °F 29.9 in NNW 3.8 mph 9.2 mph 94% 0.01 in 0 W/m2
20:11 57.6 °F 55.9 °F 29.9 in NNW 2.2 mph 9.2 mph 94% 0.01 in 0 W/m2
20:16 57.6 °F 56.1 °F 29.9 in North 2.2 mph 6 mph 95% 0.02 in 0 W/m2
20:21 57.6 °F 56.1 °F 29.9 in North 3.8 mph 5.4 mph 95% 0.02 in 0 W/m2
20:26 57.4 °F 55.9 °F 29.9 in North 3.1 mph 6.9 mph 95% 0.04 in 0 W/m2
20:31 57.4 °F 55.9 °F 29.9 in North 1.6 mph 6.9 mph 95% 0.04 in 0 W/m2
20:36 57.4 °F 56.3 °F 29.9 in NNE 3.8 mph 6 mph 96% 0.06 in 0 W/m2
20:41 57.4 °F 56.3 °F 29.9 in NE 5.4 mph 9.2 mph 96% 0.07 in 0 W/m2
20:46 57.2 °F 56.5 °F 29.9 in ENE 3.8 mph 9.2 mph 97% 0.06 in 0 W/m2
20:51 57.4 °F 56.5 °F 29.9 in NE 2.2 mph 9.2 mph 97% 0.06 in 0 W/m2
20:56 57.4 °F 56.5 °F 29.9 in NE 0.7 mph 8.3 mph 97% 0.06 in 0 W/m2
21:01 57.4 °F 56.5 °F 29.9 in NNW 3.8 mph 7.6 mph 97% 0.06 in 0 W/m2
21:06 57.2 °F 56.5 °F 29.9 in NW 2.2 mph 7.6 mph 97% 0.06 in 0 W/m2
21:11 57.2 °F 56.5 °F 29.9 in Calm   6 mph 97% 0.06 in 0 W/m2
21:16 57.2 °F 56.5 °F 29.9 in NNW 3.8 mph 9.2 mph 97% 0.05 in 0 W/m2
21:21 57.4 °F 56.5 °F 29.9 in NW 4.5 mph 9.2 mph 97% 0.05 in 0 W/m2
21:26 57.4 °F 56.5 °F 29.9 in NW 2.2 mph 8.3 mph 97% 0.04 in 0 W/m2
21:31 57.4 °F 56.5 °F 29.9 in NNW 0.7 mph 6.9 mph 97% 0.04 in 0 W/m2
21:36 57.4 °F 56.5 °F 29.9 in Calm   4.5 mph 97% 0.01 in 0 W/m2
21:41 57.2 °F 56.7 °F 29.9 in Calm   3.8 mph 98% 0 in 0 W/m2
21:46 57.2 °F 56.7 °F 29.9 in Calm   3.8 mph 98% 0 in 0 W/m2
21:51 57.2 °F 56.7 °F 29.9 in North 3.1 mph 4.5 mph 98% 0 in 0 W/m2
21:56 57.2 °F 56.7 °F 29.9 in North 3.8 mph 4.5 mph 98% 0 in 0 W/m2
22:01 57.2 °F 56.7 °F 29.9 in NNW 2.2 mph 4.5 mph 98% 0 in 0 W/m2
22:06 57.2 °F 56.7 °F 29.9 in Calm   4.5 mph 98% 0.01 in 0 W/m2
22:11 57.2 °F 56.8 °F 29.9 in Calm   3.1 mph 99% 0.01 in 0 W/m2
22:16 57 °F 56.8 °F 29.9 in Calm   3.1 mph 99% 0.01 in 0 W/m2
22:21 57 °F 56.8 °F 29.9 in Calm     99% 0.01 in 0 W/m2
22:26 57 °F 56.8 °F 29.9 in NNW 3.1 mph 4.5 mph 99% 0.01 in 0 W/m2
22:31 57 °F 56.8 °F 29.9 in NNW 2.2 mph 5.4 mph 99% 0.01 in 0 W/m2
22:36 57.2 °F 56.8 °F 29.9 in NNW 0.7 mph 5.4 mph 99% 0.01 in 0 W/m2
22:41 57 °F 56.8 °F 29.9 in Calm   4.5 mph 99% 0.01 in 0 W/m2
22:46 57 °F 56.8 °F 29.9 in NW 2.2 mph 3.8 mph 99% 0.01 in 0 W/m2
22:51 57 °F 56.8 °F 29.9 in Calm   3.8 mph 99% 0.01 in 0 W/m2
22:56 57 °F 56.8 °F 29.9 in Calm   3.8 mph 99% 0.01 in 0 W/m2
23:01 57 °F 56.8 °F 29.9 in NW 3.8 mph 5.4 mph 99% 0.01 in 0 W/m2
23:06 57.2 °F 56.8 °F 29.9 in NW 1.6 mph 5.4 mph 99% 0 in 0 W/m2
23:11 57.2 °F 56.8 °F 29.9 in Calm   5.4 mph 99% 0 in 0 W/m2
23:16 57.2 °F 56.8 °F 29.9 in Calm   3.8 mph 99% 0 in 0 W/m2
23:21 57.2 °F 56.8 °F 29.9 in Calm     99% 0 in 0 W/m2
23:26 57 °F 56.8 °F 29.9 in Calm     99% 0 in 0 W/m2
23:31 57 °F 56.8 °F 29.9 in NW 1.6 mph 3.8 mph 99% 0 in 0 W/m2
23:36 57.2 °F 56.8 °F 29.9 in Calm   3.8 mph 99% 0 in 0 W/m2
23:41 57.2 °F 56.8 °F 29.9 in NW 3.8 mph 5.4 mph 99% 0 in 0 W/m2
23:46 57.2 °F 56.8 °F 29.9 in NNW 3.1 mph 6 mph 99% 0 in 0 W/m2
23:51 57.2 °F 56.8 °F 29.9 in NNW 3.1 mph 6 mph 99% 0 in 0 W/m2
23:56 57.2 °F 56.8 °F 29.9 in NNW 3.8 mph 5.4 mph 99% 0 in 0 W/m2
Northern Hawkes Bay. New Zealand Historic Data
Compliments of Weather Underground - 2.25 mb